Kuopio

Airport
ICAO code: 
EFKU
Summary
ICAO Region: 
EUR
Territory: 
Location: 
Siilinjarvi,
Coordinates: 
Aerial View: 
63° 0' 31" N, 27° 47' 39.998" E
Airport GND: 
Aircraft Ground De/Anti Icing
Metar
Observation
EFKU 280420Z AUTO 05006KT 9999 -SN OVC006 M14/M15 Q1008
Station
Kuopio
Date/Time
2021-11-28 04:20:00
Wind direction
50°
Wind speed
06 kts
Lowest cloud amount
overcast
Temperature
-14°C
Dew point
-15°C
Humidity
92%
QNH
1008 hPa
Weather condition
light snow

Description

Military/civil airport serving the city of Kuopio in Finland. The airport is located 9 nm north of the city centre.

Climatology

Subarctic climate (Köppen climate classification Dfc) - long, usually very cold winters, and short, cool to mild summers.

Runways

Designator Length Width Surface Rops
6/24 1500 45 ASP No/No
15/33 2800 60 ASP Yes/Yes
Airport map: 
Aerial View: 

SKYbrary Partners:

Safety knowledge contributed by: